createdAt,value
2018-06-14T00:00:26.158Z,6.60
2018-06-14T00:02:53.874Z,6.50
2018-06-14T00:05:21.607Z,6.47
2018-06-14T00:07:49.345Z,6.47
2018-06-14T00:10:17.075Z,6.10
2018-06-14T00:12:44.805Z,5.50
2018-06-14T00:15:12.540Z,6.00
2018-06-14T00:17:40.284Z,6.50
2018-06-14T00:20:08.628Z,6.27
2018-06-14T00:22:36.368Z,5.70
2018-06-14T00:25:04.383Z,6.10
2018-06-14T00:27:32.128Z,5.87
2018-06-14T00:29:59.845Z,6.07
2018-06-14T00:32:27.709Z,5.90
2018-06-14T00:34:55.491Z,6.50
2018-06-14T00:37:23.228Z,5.93
2018-06-14T00:39:50.979Z,6.77
2018-06-14T00:42:18.771Z,6.80
2018-06-14T00:44:47.048Z,6.53
2018-06-14T00:47:14.793Z,6.73
2018-06-14T00:49:42.518Z,6.57
2018-06-14T00:52:10.263Z,6.80
2018-06-14T00:54:37.976Z,7.50
2018-06-14T00:57:21.309Z,6.73
2018-06-14T00:59:49.055Z,7.17
2018-06-14T01:02:16.704Z,6.87
2018-06-14T01:04:45.485Z,5.83
2018-06-14T01:07:13.209Z,7.10
2018-06-14T01:09:40.985Z,6.17
2018-06-14T01:12:08.726Z,6.40
2018-06-14T01:14:36.547Z,6.20
2018-06-14T01:17:04.496Z,6.00
2018-06-14T01:19:32.254Z,5.93
2018-06-14T01:22:00.005Z,5.70
2018-06-14T01:24:27.752Z,5.93
2018-06-14T01:26:55.883Z,7.43
2018-06-14T01:29:25.099Z,6.13
2018-06-14T01:31:52.864Z,6.07
2018-06-14T01:34:20.642Z,6.20
2018-06-14T01:36:48.421Z,6.30
2018-06-14T01:39:16.157Z,6.87
2018-06-14T01:41:43.916Z,6.40
2018-06-14T01:44:11.680Z,6.53
2018-06-14T01:46:39.386Z,6.57
2018-06-14T01:49:07.093Z,5.90
2018-06-14T01:51:34.809Z,6.50
2018-06-14T01:54:02.565Z,6.60
2018-06-14T01:56:30.297Z,6.57
2018-06-14T01:58:58.039Z,5.63
2018-06-14T02:01:25.782Z,5.70
2018-06-14T02:03:54.146Z,5.50
2018-06-14T02:06:21.863Z,6.13
2018-06-14T02:08:49.608Z,6.23
2018-06-14T02:11:17.333Z,6.20
2018-06-14T02:13:45.031Z,5.87
2018-06-14T02:16:12.734Z,5.50
2018-06-14T02:18:41.134Z,5.37
2018-06-14T02:21:09.126Z,5.97
2018-06-14T02:23:36.842Z,6.67
2018-06-14T02:26:05.420Z,5.23
2018-06-14T02:28:33.161Z,6.20
2018-06-14T02:31:00.855Z,5.93
2018-06-14T02:33:28.607Z,6.43
2018-06-14T02:35:56.370Z,6.33
2018-06-14T02:38:24.087Z,5.70
2018-06-14T02:40:52.606Z,6.77
2018-06-14T02:43:20.334Z,6.20
2018-06-14T02:45:48.110Z,6.20
2018-06-14T02:48:16.219Z,6.90
2018-06-14T02:50:43.929Z,6.70
2018-06-14T02:53:11.645Z,6.33
2018-06-14T02:55:39.393Z,6.17
2018-06-14T02:58:07.110Z,6.13
2018-06-14T03:00:34.839Z,6.23
2018-06-14T03:03:02.535Z,6.23
2018-06-14T03:05:30.277Z,6.40
2018-06-14T03:07:57.962Z,6.97
2018-06-14T03:10:25.640Z,6.30
2018-06-14T03:12:55.477Z,6.10
2018-06-14T03:15:24.734Z,6.20
2018-06-14T03:17:52.739Z,6.07
2018-06-14T03:20:25.377Z,6.30
2018-06-14T03:22:54.012Z,6.13
2018-06-14T03:25:21.829Z,6.13
2018-06-14T03:27:49.719Z,6.07
2018-06-14T03:30:17.827Z,5.80
2018-06-14T03:32:45.822Z,6.30
2018-06-14T03:35:14.100Z,6.17
2018-06-14T03:37:41.814Z,6.53
2018-06-14T03:40:09.497Z,6.73
2018-06-14T03:42:42.873Z,6.47
2018-06-14T03:45:16.815Z,6.00
2018-06-14T03:47:45.538Z,6.30
2018-06-14T03:50:13.304Z,6.10
2018-06-14T03:52:41.037Z,5.90
2018-06-14T03:55:08.739Z,6.63
2018-06-14T03:57:36.415Z,6.83
2018-06-14T04:00:04.507Z,6.87
2018-06-14T04:02:32.209Z,7.13
2018-06-14T04:05:00.124Z,6.77
2018-06-14T04:07:27.898Z,6.40
2018-06-14T04:09:55.622Z,6.63
2018-06-14T04:12:23.355Z,5.93
2018-06-14T04:14:51.104Z,6.53
2018-06-14T04:17:19.841Z,5.60
2018-06-14T04:19:47.555Z,5.90
2018-06-14T04:22:15.314Z,5.47
2018-06-14T04:24:43.022Z,5.80
2018-06-14T04:27:10.803Z,5.87
2018-06-14T04:29:38.537Z,5.57
2018-06-14T04:32:06.265Z,6.13
2018-06-14T04:34:33.940Z,6.30
2018-06-14T04:37:01.703Z,5.87
2018-06-14T04:39:29.427Z,6.70
2018-06-14T04:41:57.119Z,6.03
2018-06-14T04:44:24.882Z,4.80
2018-06-14T04:46:52.584Z,6.60
2018-06-14T04:49:20.655Z,6.40
2018-06-14T04:51:48.432Z,6.13
2018-06-14T04:54:16.138Z,6.80
2018-06-14T04:56:43.893Z,6.20
2018-06-14T04:59:11.674Z,6.13
2018-06-14T05:01:39.454Z,6.90
2018-06-14T05:04:07.261Z,6.57
2018-06-14T05:06:35.074Z,5.97
2018-06-14T05:09:04.828Z,6.17
2018-06-14T05:11:32.690Z,6.20
2018-06-14T05:14:00.474Z,7.27
2018-06-14T05:16:28.347Z,7.17
2018-06-14T05:18:56.049Z,7.00
2018-06-14T05:21:23.822Z,6.50
2018-06-14T05:23:51.547Z,7.03
2018-06-14T05:26:19.366Z,7.03
2018-06-14T05:28:47.165Z,6.73
2018-06-14T05:31:14.924Z,7.97
2018-06-14T05:33:42.698Z,7.43
2018-06-14T05:36:10.424Z,7.40
2018-06-14T05:38:38.186Z,6.20
2018-06-14T05:41:05.949Z,6.73
2018-06-14T05:43:33.699Z,6.57
2018-06-14T05:46:01.448Z,7.37
2018-06-14T05:48:29.257Z,5.60
2018-06-14T05:50:57.020Z,7.37
2018-06-14T05:53:24.773Z,6.77
2018-06-14T05:55:52.543Z,7.27
2018-06-14T05:58:20.402Z,7.63
2018-06-14T06:00:48.319Z,7.03
2018-06-14T06:03:16.060Z,7.10
2018-06-14T06:05:43.798Z,7.93
2018-06-14T06:08:12.071Z,7.13
2018-06-14T06:10:39.831Z,7.43
2018-06-14T06:13:07.659Z,6.53
2018-06-14T06:15:35.587Z,6.50
2018-06-14T06:18:03.348Z,7.43
2018-06-14T06:20:31.319Z,6.97
2018-06-14T06:22:59.086Z,7.07
2018-06-14T06:25:26.842Z,6.70
2018-06-14T06:27:54.622Z,7.63
2018-06-14T06:30:22.366Z,7.63
2018-06-14T06:32:50.102Z,7.90
2018-06-14T06:35:17.904Z,7.30
2018-06-14T06:37:45.646Z,8.00
2018-06-14T06:40:13.405Z,7.50
2018-06-14T06:42:41.227Z,7.47
2018-06-14T06:45:09.024Z,8.23
2018-06-14T06:47:36.773Z,7.77
2018-06-14T06:50:04.698Z,7.80
2018-06-14T06:52:33.766Z,7.30
2018-06-14T06:55:01.682Z,8.80
2018-06-14T06:57:32.192Z,7.80
2018-06-14T07:00:02.994Z,7.27
2018-06-14T07:02:33.860Z,8.13
2018-06-14T07:05:05.004Z,7.57
2018-06-14T07:07:32.793Z,7.20
2018-06-14T07:10:03.677Z,7.17
2018-06-14T07:12:31.447Z,8.10
2018-06-14T07:14:59.273Z,7.50
2018-06-14T07:17:27.000Z,8.20
2018-06-14T07:19:54.725Z,7.30
2018-06-14T07:22:22.451Z,6.70
2018-06-14T07:24:50.257Z,7.10
2018-06-14T07:27:18.000Z,7.63
2018-06-14T07:29:45.717Z,8.10
2018-06-14T07:32:13.463Z,7.23
2018-06-14T07:34:45.989Z,8.03
2018-06-14T07:37:13.696Z,6.47
2018-06-14T07:39:42.205Z,7.63
2018-06-14T07:42:10.009Z,7.93
2018-06-14T07:44:37.813Z,7.17
2018-06-14T07:47:05.551Z,5.07
2018-06-14T07:49:33.294Z,6.57
2018-06-14T07:52:01.040Z,6.57
2018-06-14T07:54:28.752Z,8.00
2018-06-14T07:56:56.505Z,7.50
2018-06-14T07:59:24.230Z,6.83
2018-06-14T08:01:52.098Z,7.40
2018-06-14T08:04:20.523Z,7.03
2018-06-14T08:06:49.246Z,5.83
2018-06-14T08:09:18.695Z,6.40
2018-06-14T08:11:49.413Z,6.40
2018-06-14T08:14:17.132Z,5.90
2018-06-14T08:16:44.882Z,6.53
2018-06-14T08:19:12.582Z,6.17
2018-06-14T08:21:40.312Z,6.20
2018-06-14T08:24:08.143Z,6.60
2018-06-14T08:26:35.892Z,5.70
2018-06-14T08:29:03.634Z,5.93
2018-06-14T08:31:31.352Z,6.37
2018-06-14T08:33:59.160Z,5.33
2018-06-14T08:36:26.894Z,5.67
2018-06-14T08:38:54.772Z,5.53
2018-06-14T08:41:22.549Z,5.03
2018-06-14T08:43:50.363Z,6.27
2018-06-14T08:46:18.133Z,5.20
2018-06-14T08:48:45.857Z,5.43
2018-06-14T08:51:13.613Z,5.60
2018-06-14T08:53:41.374Z,4.70
2018-06-14T08:56:09.106Z,4.23
2018-06-14T08:58:36.864Z,3.80
2018-06-14T09:01:04.570Z,3.63
2018-06-14T09:03:32.338Z,3.87
2018-06-14T09:06:00.042Z,4.10
2018-06-14T09:08:28.211Z,3.40
2018-06-14T09:10:55.919Z,3.80
2018-06-14T09:13:23.924Z,3.70
2018-06-14T09:15:51.644Z,3.57
2018-06-14T09:18:19.494Z,3.43
2018-06-14T09:20:48.550Z,3.60
2018-06-14T09:23:16.390Z,3.47
2018-06-14T09:25:44.857Z,4.40
2018-06-14T09:28:12.659Z,4.03
2018-06-14T09:30:40.394Z,3.87
2018-06-14T09:33:08.062Z,4.10
2018-06-14T09:35:35.832Z,3.57
2018-06-14T09:38:03.539Z,3.77
2018-06-14T09:40:31.184Z,3.87
2018-06-14T09:42:59.002Z,3.73
2018-06-14T09:45:26.635Z,3.50
2018-06-14T09:47:54.322Z,3.77
2018-06-14T09:50:22.014Z,3.70
2018-06-14T09:52:49.711Z,4.03
2018-06-14T09:55:17.419Z,3.57
2018-06-14T09:57:45.089Z,3.43
2018-06-14T10:00:12.779Z,3.87
2018-06-14T10:02:41.323Z,3.97
2018-06-14T10:05:09.170Z,3.70
2018-06-14T10:07:36.866Z,3.50
2018-06-14T10:10:04.605Z,3.77
2018-06-14T10:12:34.078Z,4.47
2018-06-14T10:15:02.518Z,4.53
2018-06-14T10:17:30.206Z,4.53
2018-06-14T10:19:57.930Z,3.87
2018-06-14T10:22:25.631Z,4.53
2018-06-14T10:24:53.370Z,4.10
2018-06-14T10:27:21.138Z,5.13
2018-06-14T10:29:48.781Z,4.73
2018-06-14T10:32:16.487Z,4.57
2018-06-14T10:34:44.166Z,4.40
2018-06-14T10:37:12.512Z,3.90
2018-06-14T10:39:40.355Z,3.80
2018-06-14T10:42:10.171Z,3.87
2018-06-14T10:44:39.765Z,3.90
2018-06-14T10:47:07.498Z,4.13
2018-06-14T10:49:35.179Z,4.13
2018-06-14T10:52:04.908Z,3.80
2018-06-14T10:54:32.594Z,3.70
2018-06-14T10:57:00.362Z,3.40
2018-06-14T10:59:29.011Z,3.60
2018-06-14T11:01:57.186Z,3.77
2018-06-14T11:04:25.955Z,3.73
2018-06-14T11:06:54.718Z,3.80
2018-06-14T11:09:22.527Z,4.60
2018-06-14T11:11:50.392Z,4.10
2018-06-14T11:14:18.160Z,4.10
2018-06-14T11:16:45.916Z,4.13
2018-06-14T11:19:13.692Z,4.03
2018-06-14T11:21:41.444Z,4.43
2018-06-14T11:24:09.867Z,3.60
2018-06-14T11:26:37.557Z,3.93
2018-06-14T11:29:05.599Z,4.20
2018-06-14T11:31:33.339Z,4.13
2018-06-14T11:34:01.069Z,3.70
2018-06-14T11:36:28.843Z,4.23
2018-06-14T11:38:56.551Z,4.67
2018-06-14T11:41:24.327Z,3.93
2018-06-14T11:43:53.936Z,4.03
2018-06-14T11:46:22.551Z,4.63
2018-06-14T11:48:50.366Z,4.63
2018-06-14T11:51:18.206Z,4.10
2018-06-14T11:53:46.006Z,5.20
2018-06-14T11:56:13.867Z,4.70
2018-06-14T11:58:41.589Z,4.90
2018-06-14T12:01:09.365Z,4.17
2018-06-14T12:03:37.051Z,4.63
2018-06-14T12:06:04.759Z,4.33
2018-06-14T12:08:33.315Z,3.80
2018-06-14T12:11:01.112Z,4.27
2018-06-14T12:13:29.506Z,4.67
2018-06-14T12:15:57.229Z,4.10
2018-06-14T12:18:24.963Z,4.90
2018-06-14T12:20:52.759Z,4.40
2018-06-14T12:23:21.017Z,4.97
2018-06-14T12:25:48.803Z,4.33
2018-06-14T12:28:16.496Z,4.70
2018-06-14T12:30:44.175Z,4.83
2018-06-14T12:33:11.900Z,5.00
2018-06-14T12:35:39.901Z,4.80
2018-06-14T12:38:07.590Z,4.70
2018-06-14T12:40:35.364Z,5.10
2018-06-14T12:43:03.089Z,5.13
2018-06-14T12:45:30.892Z,5.30
2018-06-14T12:47:59.173Z,5.00
2018-06-14T12:50:27.033Z,5.53
2018-06-14T12:52:55.131Z,5.57
2018-06-14T12:55:23.410Z,5.50
2018-06-14T12:57:51.903Z,4.77
2018-06-14T13:00:19.915Z,5.43
2018-06-14T13:02:47.692Z,5.40
2018-06-14T13:05:15.598Z,5.13
2018-06-14T13:07:43.345Z,5.33
2018-06-14T13:10:11.057Z,4.80
2018-06-14T13:12:38.745Z,5.20
2018-06-14T13:15:06.470Z,6.00
2018-06-14T13:17:34.168Z,5.03
2018-06-14T13:20:01.882Z,5.43
2018-06-14T13:22:29.627Z,5.50
2018-06-14T13:24:57.329Z,4.90
2018-06-14T13:27:25.020Z,5.17
2018-06-14T13:29:52.711Z,5.30
2018-06-14T13:32:20.405Z,5.50
2018-06-14T13:34:48.152Z,5.43
2018-06-14T13:37:15.935Z,5.40
2018-06-14T13:39:43.671Z,5.47
2018-06-14T13:42:11.444Z,5.27
2018-06-14T13:44:39.158Z,5.50
2018-06-14T13:47:06.916Z,5.70
2018-06-14T13:49:34.684Z,5.43
2018-06-14T13:52:02.471Z,5.57
2018-06-14T13:54:30.161Z,5.60
2018-06-14T13:56:57.915Z,5.73
2018-06-14T13:59:26.551Z,5.40
2018-06-14T14:01:54.295Z,5.63
2018-06-14T14:04:22.012Z,5.53
2018-06-14T14:06:55.188Z,5.17
2018-06-14T14:09:22.866Z,5.77
2018-06-14T14:11:50.584Z,5.70
2018-06-14T14:14:18.326Z,6.00
2018-06-14T14:16:46.031Z,5.77
2018-06-14T14:19:13.786Z,5.70
2018-06-14T14:21:41.472Z,5.63
2018-06-14T14:24:09.167Z,5.90
2018-06-14T14:26:36.850Z,5.97
2018-06-14T14:29:04.534Z,5.87
2018-06-14T14:31:32.191Z,5.37
2018-06-14T14:33:59.927Z,5.07
2018-06-14T14:36:27.646Z,5.73
2018-06-14T14:38:55.350Z,5.63
2018-06-14T14:41:23.036Z,6.43
2018-06-14T14:43:50.754Z,5.67
2018-06-14T14:46:18.477Z,5.57
2018-06-14T14:48:46.163Z,6.03
2018-06-14T14:51:14.485Z,6.10
2018-06-14T14:53:42.176Z,6.53
2018-06-14T14:56:09.861Z,5.60
2018-06-14T14:58:37.748Z,6.20
2018-06-14T15:01:05.560Z,5.67
2018-06-14T15:03:33.281Z,5.97
2018-06-14T15:06:00.999Z,5.43
2018-06-14T15:08:28.723Z,5.47
2018-06-14T15:10:56.378Z,5.67
2018-06-14T15:13:24.042Z,5.60
2018-06-14T15:15:51.780Z,4.93
2018-06-14T15:18:19.753Z,5.50
2018-06-14T15:20:47.526Z,6.23
2018-06-14T15:23:15.270Z,5.13
2018-06-14T15:25:42.987Z,5.93
2018-06-14T15:28:10.707Z,5.50
2018-06-14T15:30:38.414Z,5.57
2018-06-14T15:33:06.093Z,6.47
2018-06-14T15:35:33.909Z,6.27
2018-06-14T15:38:01.633Z,6.20
2018-06-14T15:47:13.662Z,6.70
2018-06-14T15:49:41.482Z,6.10
2018-06-14T15:52:11.646Z,6.40
2018-06-14T15:54:39.438Z,6.33
2018-06-14T15:57:07.171Z,6.57
2018-06-14T15:59:34.873Z,6.43
2018-06-14T16:02:02.626Z,7.07
2018-06-14T16:04:30.415Z,6.40
2018-06-14T16:06:58.174Z,6.97
2018-06-14T16:09:25.896Z,7.27
2018-06-14T16:11:53.622Z,6.80
2018-06-14T16:14:21.378Z,7.40
2018-06-14T16:16:49.105Z,7.27
2018-06-14T16:19:16.906Z,7.47
2018-06-14T16:21:44.621Z,7.37
2018-06-14T16:24:12.560Z,8.10
2018-06-14T16:26:40.238Z,8.77
2018-06-14T16:29:08.002Z,7.73
2018-06-14T16:31:35.725Z,8.63
2018-06-14T16:34:03.495Z,8.47
2018-06-14T16:36:31.271Z,8.73
2018-06-14T16:38:59.043Z,9.33
2018-06-14T16:41:26.754Z,8.50
2018-06-14T16:43:54.450Z,9.40
2018-06-14T16:46:22.186Z,8.43
2018-06-14T16:48:49.903Z,8.70
2018-06-14T16:51:17.639Z,8.60
2018-06-14T16:53:45.361Z,8.17
2018-06-14T16:56:13.051Z,8.20
2018-06-14T16:58:40.754Z,8.30
2018-06-14T17:01:08.540Z,7.97
2018-06-14T17:03:36.279Z,8.17
2018-06-14T17:06:04.089Z,7.63
2018-06-14T17:08:33.157Z,7.30
2018-06-14T17:11:01.039Z,7.90
2018-06-14T17:13:28.775Z,7.40
2018-06-14T17:15:56.498Z,7.73
2018-06-14T17:18:24.255Z,7.17
2018-06-14T17:20:52.178Z,8.20
2018-06-14T17:23:19.941Z,7.70
2018-06-14T17:25:48.025Z,8.17
2018-06-14T17:28:15.693Z,8.23
2018-06-14T17:30:43.357Z,7.80
2018-06-14T17:33:11.058Z,7.77
2018-06-14T17:35:38.901Z,8.87
2018-06-14T17:38:06.750Z,8.50
2018-06-14T17:40:34.499Z,8.40
2018-06-14T17:43:02.312Z,6.80
2018-06-14T17:45:30.262Z,8.67
2018-06-14T17:47:57.988Z,7.80
2018-06-14T17:50:25.701Z,8.27
2018-06-14T17:52:53.419Z,8.63
2018-06-14T17:55:24.724Z,8.03
2018-06-14T17:57:52.531Z,8.27
2018-06-14T18:00:20.264Z,8.30
2018-06-14T18:02:48.082Z,8.20
2018-06-14T18:05:16.352Z,8.73
2018-06-14T18:07:44.166Z,8.47
2018-06-14T18:10:13.002Z,8.67
2018-06-14T18:12:40.799Z,8.90
2018-06-14T18:15:08.944Z,8.90
2018-06-14T18:17:36.634Z,8.67
2018-06-14T18:20:04.390Z,8.77
2018-06-14T18:22:32.115Z,8.43
2018-06-14T18:25:00.471Z,8.87
2018-06-14T18:27:28.174Z,7.73
2018-06-14T18:29:55.884Z,8.37
2018-06-14T18:32:23.622Z,9.33
2018-06-14T18:34:51.315Z,9.03
2018-06-14T18:37:19.010Z,9.30
2018-06-14T18:39:46.731Z,8.87
2018-06-14T18:42:14.442Z,8.90
2018-06-14T18:44:42.162Z,8.50
2018-06-14T18:47:09.865Z,10.10
2018-06-14T18:49:37.602Z,8.60
2018-06-14T18:52:05.331Z,9.90
2018-06-14T18:54:33.014Z,10.10
2018-06-14T18:57:00.732Z,9.40
2018-06-14T18:59:29.100Z,9.80
2018-06-14T19:01:56.788Z,9.37
2018-06-14T19:04:24.521Z,9.17
2018-06-14T19:06:52.644Z,10.03
2018-06-14T19:09:20.521Z,9.57
2018-06-14T19:11:48.211Z,9.63
2018-06-14T19:14:15.939Z,10.00
2018-06-14T19:16:43.755Z,9.30
2018-06-14T19:19:11.450Z,10.00
2018-06-14T19:21:39.230Z,10.63
2018-06-14T19:24:07.053Z,10.30
2018-06-14T19:26:34.817Z,10.40
2018-06-14T19:29:02.601Z,10.50
2018-06-14T19:31:30.913Z,11.20
2018-06-14T19:33:59.156Z,10.67
2018-06-14T19:36:26.966Z,10.53
2018-06-14T19:38:55.290Z,10.93
2018-06-14T19:41:23.461Z,10.93
2018-06-14T19:43:51.345Z,10.67
2018-06-14T19:46:19.385Z,11.33
2018-06-14T19:48:47.194Z,10.70
2018-06-14T19:51:14.943Z,10.80
2018-06-14T19:53:42.785Z,10.77
2018-06-14T19:56:10.698Z,11.10
2018-06-14T19:58:38.556Z,11.23
2018-06-14T20:01:06.378Z,11.70
2018-06-14T20:03:34.093Z,11.37
2018-06-14T20:06:01.803Z,12.30
2018-06-14T20:08:29.533Z,10.83
2018-06-14T20:10:57.251Z,11.73
2018-06-14T20:13:24.930Z,11.23
2018-06-14T20:15:52.671Z,10.63
2018-06-14T20:18:20.365Z,11.20
2018-06-14T20:20:48.132Z,11.00
2018-06-14T20:23:15.801Z,11.47
2018-06-14T20:25:43.573Z,11.10
2018-06-14T20:28:11.299Z,11.47
2018-06-14T20:30:39.050Z,11.37
2018-06-14T20:33:07.039Z,10.70
2018-06-14T20:35:34.745Z,11.93
2018-06-14T20:38:02.436Z,12.33
2018-06-14T20:40:30.148Z,12.50
2018-06-14T20:42:57.874Z,11.97
2018-06-14T20:45:25.675Z,12.53
2018-06-14T20:47:53.400Z,13.93
2018-06-14T20:50:21.146Z,13.73
2018-06-14T20:52:48.915Z,14.27
2018-06-14T20:55:16.588Z,13.93
2018-06-14T20:57:44.307Z,13.13
2018-06-14T21:00:12.009Z,13.83
2018-06-14T21:02:39.725Z,14.17
2018-06-14T21:05:07.493Z,14.23
2018-06-14T21:07:35.189Z,15.00
2018-06-14T21:10:02.914Z,15.13
2018-06-14T21:12:30.626Z,14.53
2018-06-14T21:14:58.308Z,14.43
2018-06-14T21:17:26.008Z,14.67
2018-06-14T21:19:53.666Z,13.80
2018-06-14T21:22:21.383Z,14.40
2018-06-14T21:24:49.065Z,14.43
2018-06-14T21:27:16.722Z,15.60
2018-06-14T21:29:44.398Z,14.80
2018-06-14T21:32:12.101Z,15.77
2018-06-14T21:34:39.798Z,15.50
2018-06-14T21:37:07.591Z,15.03
2018-06-14T21:39:35.327Z,15.27
2018-06-14T21:42:03.173Z,15.33
2018-06-14T21:44:30.862Z,16.17
2018-06-14T21:46:58.568Z,16.83
2018-06-14T21:49:26.241Z,15.47
2018-06-14T21:51:53.937Z,15.23
2018-06-14T21:54:21.635Z,15.43
2018-06-14T21:56:49.348Z,15.97
2018-06-14T21:59:17.093Z,15.90
2018-06-14T22:01:44.855Z,15.73
2018-06-14T22:04:12.541Z,16.37
2018-06-14T22:06:40.225Z,15.87
2018-06-14T22:09:07.903Z,15.97
2018-06-14T22:11:35.606Z,16.63
2018-06-14T22:14:03.328Z,15.07
2018-06-14T22:16:31.070Z,17.03
2018-06-14T22:18:58.789Z,15.47
2018-06-14T22:21:26.508Z,16.73
2018-06-14T22:23:54.273Z,17.30
2018-06-14T22:26:22.067Z,17.53
2018-06-14T22:28:49.804Z,16.47
2018-06-14T22:31:17.535Z,16.67
2018-06-14T22:34:02.597Z,16.70
2018-06-14T22:36:30.271Z,15.80
2018-06-14T22:38:57.959Z,16.13
2018-06-14T22:41:25.713Z,17.10
2018-06-14T22:43:54.469Z,17.43
2018-06-14T22:46:22.241Z,16.93
2018-06-14T22:48:49.941Z,16.10
2018-06-14T22:51:21.238Z,17.00
2018-06-14T22:53:48.894Z,16.77
2018-06-14T22:56:16.571Z,17.37
2018-06-14T22:58:44.908Z,18.30
2018-06-14T23:01:45.366Z,16.83
2018-06-14T23:04:15.297Z,17.57
2018-06-14T23:06:42.994Z,16.67
2018-06-14T23:10:45.147Z,16.37
2018-06-14T23:13:15.088Z,17.00
2018-06-14T23:15:44.822Z,16.80
2018-06-14T23:18:12.533Z,17.90
2018-06-14T23:20:40.252Z,16.40
2018-06-14T23:23:08.302Z,16.97
2018-06-14T23:25:36.494Z,17.63
2018-06-14T23:28:04.214Z,17.03
2018-06-14T23:30:31.921Z,16.80
2018-06-14T23:32:59.605Z,16.97
2018-06-14T23:35:27.310Z,16.57
2018-06-14T23:37:54.985Z,17.63
2018-06-14T23:40:22.893Z,16.70
2018-06-14T23:42:50.719Z,17.60
2018-06-14T23:45:18.449Z,17.17
2018-06-14T23:47:46.148Z,17.37
2018-06-14T23:50:13.870Z,17.33
2018-06-14T23:52:41.582Z,17.13
2018-06-14T23:55:09.322Z,17.33
2018-06-14T23:57:37.046Z,17.13
